Time;durP1;ratioP1;P1;durP2;ratioP2;P2;SDS_P1;SDS_P2;PMS_P1;PMS_P2;Temp;Humidity;BMP_temperature;BMP_pressure;BME280_temperature;BME280_humidity;BME280_pressure;Samples;Min_cycle;Max_cycle;Signal;HPM_P1;HPM_P2
2023/01/01 00:00:42;;;;;;;;;1.00;1.00;;;;;21.78;44.19;100894.66;5032598;28;47327;-69
2023/01/01 00:03:08;;;;;;;;;1.00;1.00;;;;;21.78;44.63;100899.97;5032432;28;45367;-69
2023/01/01 00:05:37;;;;;;;;;1.00;1.00;;;;;21.67;44.02;100882.66;5032956;28;45368;-69
2023/01/01 00:08:03;;;;;;;;;1.00;1.00;;;;;21.70;44.25;100887.59;5032687;28;45345;-69
2023/01/01 00:10:28;;;;;;;;;2.67;1.00;;;;;21.79;44.26;100907.72;5032309;28;47062;-69
2023/01/01 00:12:55;;;;;;;;;1.67;0.00;;;;;21.80;44.17;100908.56;5031998;28;45378;-69
2023/01/01 00:15:20;;;;;;;;;1.00;1.00;;;;;21.72;44.23;100898.84;5032770;28;45224;-69
2023/01/01 00:17:45;;;;;;;;;1.00;1.00;;;;;21.71;44.16;100908.59;5032499;28;45306;-69
2023/01/01 00:20:11;;;;;;;;;1.00;1.00;;;;;21.81;44.23;100915.47;5032516;28;45466;-69
2023/01/01 00:22:37;;;;;;;;;2.00;1.00;;;;;21.79;44.50;100936.03;5032435;28;45445;-69
2023/01/01 00:25:03;;;;;;;;;4.00;1.00;;;;;21.79;44.13;100944.81;5032297;28;45284;-69
2023/01/01 00:27:29;;;;;;;;;1.00;1.00;;;;;21.80;44.18;100951.75;5032237;28;45522;-69
2023/01/01 00:29:54;;;;;;;;;1.00;1.00;;;;;21.79;44.31;100965.16;5031988;28;46322;-69
2023/01/01 00:32:19;;;;;;;;;1.67;1.67;;;;;21.81;44.21;100963.97;5032289;28;45277;-69
2023/01/01 00:34:45;;;;;;;;;2.00;0.00;;;;;21.76;44.04;100941.66;5032321;28;45353;-69
2023/01/01 00:37:10;;;;;;;;;2.33;1.00;;;;;21.80;44.53;100957.06;5032215;28;45364;-69
2023/01/01 00:39:36;;;;;;;;;1.67;1.00;;;;;21.79;44.48;100963.34;5032031;28;47126;-69
2023/01/01 00:42:01;;;;;;;;;3.33;2.67;;;;;21.80;44.54;100965.00;5031667;28;45263;-69
2023/01/01 00:44:26;;;;;;;;;0.67;0.67;;;;;21.75;44.04;100964.69;5032141;28;45284;-68
2023/01/01 00:46:51;;;;;;;;;0.67;0.67;;;;;21.78;44.10;100958.22;5032273;28;45261;-69
2023/01/01 00:49:17;;;;;;;;;1.00;1.00;;;;;21.78;44.45;100959.03;5031795;28;46789;-69
2023/01/01 00:51:42;;;;;;;;;1.00;1.00;;;;;21.79;44.14;100963.34;5032010;27;45343;-69
2023/01/01 00:54:07;;;;;;;;;2.00;1.00;;;;;21.79;44.43;100958.03;5050558;28;45269;-68
2023/01/01 00:56:34;;;;;;;;;2.00;0.67;;;;;21.79;44.47;100952.75;5034794;28;45474;-69
2023/01/01 00:58:59;;;;;;;;;1.00;1.00;;;;;21.67;44.54;100941.75;5034878;27;46225;-69
2023/01/01 01:01:25;;;;;;;;;2.00;1.00;;;;;21.79;44.13;100933.38;5034765;28;46604;-68
2023/01/01 01:03:50;;;;;;;;;0.00;0.00;;;;;21.79;43.99;100949.25;5035032;28;45421;-69
2023/01/01 01:06:17;;;;;;;;;1.67;0.67;;;;;21.79;44.04;100946.63;5035074;28;45630;-69
2023/01/01 01:08:45;;;;;;;;;0.67;0.67;;;;;21.81;43.98;100960.50;5034745;28;47336;-69
2023/01/01 01:11:15;;;;;;;;;1.33;1.33;;;;;21.81;44.77;100966.63;5034337;28;45384;-69
2023/01/01 01:13:42;;;;;;;;;3.00;1.00;;;;;21.81;44.56;100976.41;5034851;28;45394;-68
2023/01/01 01:16:12;;;;;;;;;1.33;0.00;;;;;21.81;44.12;100963.16;5034961;28;45272;-68
2023/01/01 01:18:38;;;;;;;;;2.00;2.00;;;;;21.82;44.08;100959.50;5034593;28;46454;-68
2023/01/01 01:21:04;;;;;;;;;0.00;0.00;;;;;21.81;44.42;100956.03;5034619;28;45376;-68
2023/01/01 01:23:30;;;;;;;;;1.00;1.00;;;;;21.79;44.46;100947.44;5034965;28;45358;-69
2023/01/01 01:26:24;;;;;;;;;0.00;0.00;;;;;21.82;44.52;100964.81;5034438;28;45343;-69
2023/01/01 01:28:50;;;;;;;;;0.00;0.00;;;;;21.81;44.56;100971.94;5034473;28;47201;-69
2023/01/01 01:31:21;;;;;;;;;2.67;1.00;;;;;21.83;43.93;100980.53;5034584;28;45226;-68
2023/01/01 01:33:48;;;;;;;;;1.00;1.00;;;;;21.74;44.18;100965.69;5034591;28;45361;-70
2023/01/01 01:36:14;;;;;;;;;1.33;1.33;;;;;21.81;43.97;100979.88;5034614;28;45450;-69
2023/01/01 01:38:40;;;;;;;;;2.00;1.00;;;;;21.80;44.63;100985.34;5033976;28;46285;-69
2023/01/01 01:41:06;;;;;;;;;1.00;1.00;;;;;21.82;44.25;100967.47;5034570;28;45654;-69
2023/01/01 01:43:31;;;;;;;;;0.33;0.33;;;;;21.82;44.58;100986.00;5034753;28;45412;-69
2023/01/01 01:46:07;;;;;;;;;0.00;0.00;;;;;21.80;44.60;100986.19;5034641;28;45423;-69
2023/01/01 01:48:39;;;;;;;;;2.67;0.67;;;;;21.81;44.12;101001.06;5034307;28;47255;-69
2023/01/01 01:51:06;;;;;;;;;1.67;1.00;;;;;21.79;43.91;100995.13;5034242;28;45352;-69
2023/01/01 01:53:34;;;;;;;;;1.00;0.67;;;;;21.82;44.61;100986.00;5045648;28;45523;-69
2023/01/01 01:56:03;;;;;;;;;2.33;1.00;;;;;21.70;44.08;100972.34;5039142;28;45373;-70
2023/01/01 01:58:30;;;;;;;;;1.00;1.00;;;;;21.81;44.61;101006.34;5034216;28;45330;-70
2023/01/01 02:00:56;;;;;;;;;0.00;0.00;;;;;21.81;44.34;101005.53;5016366;28;45408;-69
2023/01/01 02:03:48;;;;;;;;;0.67;0.67;;;;;21.80;44.32;101009.19;5034169;28;45327;-69
2023/01/01 02:06:14;;;;;;;;;1.00;1.00;;;;;21.80;44.25;101022.44;5039109;28;45345;-69
2023/01/01 02:08:40;;;;;;;;;1.00;1.00;;;;;21.79;44.57;101026.06;5033862;28;46032;-69
2023/01/01 02:11:05;;;;;;;;;2.00;1.00;;;;;21.79;44.29;101010.19;5034151;28;45329;-68
2023/01/01 02:13:31;;;;;;;;;1.00;1.00;;;;;21.79;44.41;101020.78;5034216;28;45398;-69
2023/01/01 02:16:05;;;;;;;;;2.33;0.67;;;;;21.79;44.21;101024.25;5034248;28;45626;-69
2023/01/01 02:18:43;;;;;;;;;1.33;0.00;;;;;21.78;44.59;101022.59;5033948;28;46266;-69
2023/01/01 02:21:15;;;;;;;;;1.00;1.00;;;;;21.77;44.72;101026.25;5033924;28;45333;-69
2023/01/01 02:23:48;;;;;;;;;1.00;1.00;;;;;21.66;44.25;101014.22;5033698;28;45355;-69
2023/01/01 02:26:19;;;;;;;;;1.67;1.00;;;;;21.78;44.64;101019.94;5034200;28;45339;-69
2023/01/01 02:29:12;;;;;;;;;0.00;0.00;;;;;21.78;44.24;101016.50;5033738;28;46036;-69
2023/01/01 02:31:45;;;;;;;;;1.00;1.00;;;;;21.78;44.54;101019.16;5033773;28;45403;-69
2023/01/01 02:34:14;;;;;;;;;0.00;0.00;;;;;21.79;44.40;101034.00;5033978;28;45368;-69
2023/01/01 02:36:47;;;;;;;;;4.00;1.00;;;;;21.78;44.18;101012.00;5033633;28;45486;-69
2023/01/01 02:39:18;;;;;;;;;0.00;0.00;;;;;21.79;44.53;101023.41;5033657;28;46621;-69
2023/01/01 02:41:49;;;;;;;;;1.00;1.00;;;;;21.79;44.11;101032.19;5033656;28;45434;-69
2023/01/01 02:44:16;;;;;;;;;2.00;0.00;;;;;21.70;44.40;101014.72;5033830;28;45427;-69
2023/01/01 02:46:41;;;;;;;;;1.00;1.00;;;;;21.80;44.17;101030.38;5032622;28;45424;-69
2023/01/01 02:49:07;;;;;;;;;1.00;1.00;;;;;21.81;44.06;101032.00;5033401;28;46797;-69
2023/01/01 02:51:47;;;;;;;;;0.00;0.00;;;;;21.81;44.51;101032.00;5033464;28;45329;-69
2023/01/01 02:54:18;;;;;;;;;0.00;0.00;;;;;21.82;44.20;101041.63;5050568;28;45404;-69
2023/01/01 02:57:38;;;;;;;;;1.33;0.00;;;;;21.83;44.50;101051.22;5033934;27;45289;-69
2023/01/01 03:00:18;;;;;;;;;2.00;0.67;;;;;21.82;44.58;101052.22;5074391;28;46412;-69
2023/01/01 03:02:43;;;;;;;;;0.00;0.00;;;;;21.82;44.16;101057.50;5074248;28;45405;-69
2023/01/01 03:05:32;;;;;;;;;2.33;0.67;;;;;21.82;44.29;101042.44;5074547;28;45352;-69
2023/01/01 03:08:16;;;;;;;;;1.00;1.00;;;;;21.83;44.17;101051.22;5074620;28;45420;-69
2023/01/01 03:10:57;;;;;;;;;0.00;0.00;;;;;21.83;44.51;101059.97;5074418;28;47195;-71
2023/01/01 03:13:27;;;;;;;;;0.00;0.00;;;;;21.82;44.14;101074.22;5074366;28;45546;-71
2023/01/01 03:16:02;;;;;;;;;1.00;1.00;;;;;21.82;44.29;101066.28;5073577;28;45404;-71
2023/01/01 03:18:45;;;;;;;;;0.67;0.67;;;;;21.84;44.18;101063.47;5074259;28;45488;-70
2023/01/01 03:21:15;;;;;;;;;0.67;0.33;;;;;21.85;44.39;101070.41;5073883;28;47203;-71
2023/01/01 03:23:45;;;;;;;;;0.00;0.00;;;;;21.86;44.57;101074.69;5074135;28;45447;-71
2023/01/01 03:26:14;;;;;;;;;1.00;1.00;;;;;21.88;45.11;101078.06;5074294;28;45471;-72
2023/01/01 03:28:55;;;;;;;;;2.00;0.00;;;;;21.89;45.14;101074.38;5073432;28;45384;-71
2023/01/01 03:31:24;;;;;;;;;0.00;0.00;;;;;21.88;44.72;101072.75;5074101;28;46317;-72
2023/01/01 03:34:03;;;;;;;;;1.67;1.67;;;;;21.90;44.65;101077.88;5057263;28;45504;-70
2023/01/01 03:36:34;;;;;;;;;1.00;1.00;;;;;21.91;45.23;101063.63;5015019;28;45358;-71
2023/01/01 03:39:06;;;;;;;;;1.00;1.00;;;;;21.85;44.93;101059.81;5032809;28;45484;-71
2023/01/01 03:41:54;;;;;;;;;1.00;1.00;;;;;21.92;45.29;101075.88;5032973;28;47383;-71
2023/01/01 03:44:26;;;;;;;;;0.33;0.33;;;;;21.93;44.91;101082.81;5073720;28;45470;-70
2023/01/01 03:46:52;;;;;;;;;1.67;0.67;;;;;21.91;45.10;101082.97;5073936;28;45814;-72
2023/01/01 03:49:18;;;;;;;;;0.33;0.33;;;;;21.91;44.96;101072.38;5073416;28;45339;-70
2023/01/01 03:51:58;;;;;;;;;0.67;0.67;;;;;21.92;44.98;101060.81;5073652;28;46309;-71
2023/01/01 03:54:42;;;;;;;;;0.33;0.33;;;;;21.94;45.47;101068.56;5090796;27;46134;-70
2023/01/01 03:57:18;;;;;;;;;2.67;0.00;;;;;21.85;45.24;101071.25;5073484;28;45896;-70
2023/01/01 03:59:52;;;;;;;;;1.00;1.00;;;;;21.95;45.75;101086.13;5073748;28;45459;-71
2023/01/01 04:02:25;;;;;;;;;1.00;1.00;;;;;21.95;45.27;101086.94;5073421;28;45461;-70
2023/01/01 04:04:51;;;;;;;;;1.00;1.00;;;;;21.94;45.71;101081.81;5073340;28;45419;-71
2023/01/01 04:07:16;;;;;;;;;0.00;0.00;;;;;21.93;45.30;101081.00;5073673;28;45414;-70
2023/01/01 04:09:48;;;;;;;;;1.33;0.33;;;;;21.92;45.11;101082.00;5073734;28;45427;-71
2023/01/01 04:12:15;;;;;;;;;1.00;0.00;;;;;21.94;45.20;101074.69;5073640;28;46972;-71
2023/01/01 04:14:42;;;;;;;;;1.00;1.00;;;;;21.95;45.24;101080.81;5073281;28;46231;-71
2023/01/01 04:17:10;;;;;;;;;0.00;0.00;;;;;21.95;45.76;101083.47;5073581;28;45296;-71
2023/01/01 04:19:35;;;;;;;;;1.00;1.00;;;;;21.95;45.35;101075.53;5073100;27;45385;-71
2023/01/01 04:22:02;;;;;;;;;1.00;1.00;;;;;21.94;45.38;101095.88;5008333;28;48067;-71
2023/01/01 04:24:27;;;;;;;;;2.00;2.00;;;;;21.95;45.48;101105.50;5012519;28;45361;-71
2023/01/01 04:26:54;;;;;;;;;2.00;0.00;;;;;21.96;45.53;101124.88;5012448;28;45365;-70
2023/01/01 04:29:20;;;;;;;;;0.67;0.33;;;;;21.96;45.56;101116.94;5014653;28;45439;-74
2023/01/01 04:31:45;;;;;;;;;2.00;0.00;;;;;21.98;45.68;101116.75;5015338;28;47415;-72
2023/01/01 04:34:11;;;;;;;;;1.00;0.00;;;;;21.91;46.21;101098.06;5014661;28;45369;-72
2023/01/01 04:36:36;;;;;;;;;0.00;0.00;;;;;21.97;45.71;101121.22;5015540;28;45335;-71
2023/01/01 04:39:03;;;;;;;;;1.33;0.00;;;;;21.95;45.56;101115.25;5015013;28;45453;-71
2023/01/01 04:41:28;;;;;;;;;0.00;0.00;;;;;21.95;45.59;101121.38;5015342;28;45383;-70
2023/01/01 04:43:53;;;;;;;;;2.00;1.00;;;;;21.95;45.68;101120.56;5015180;28;45319;-71
2023/01/01 04:46:20;;;;;;;;;2.00;0.00;;;;;21.95;45.32;101124.03;5015483;28;45288;-71
2023/01/01 04:48:46;;;;;;;;;0.33;0.33;;;;;21.94;45.18;101117.06;5015039;28;45407;-71
2023/01/01 04:51:13;;;;;;;;;1.00;1.00;;;;;21.95;45.31;101134.63;5014976;28;46283;-71
2023/01/01 04:53:39;;;;;;;;;1.00;1.00;;;;;21.85;45.54;101116.28;5040132;28;45252;-71
2023/01/01 04:56:07;;;;;;;;;1.00;1.00;;;;;21.94;45.54;101138.28;5021377;28;45314;-71
2023/01/01 04:58:33;;;;;;;;;0.00;0.00;;;;;21.88;45.36;101128.38;5035151;28;45431;-71
2023/01/01 05:00:59;;;;;;;;;0.33;0.33;;;;;21.95;45.75;101147.88;5034993;28;45464;-71
2023/01/01 05:03:24;;;;;;;;;0.00;0.00;;;;;21.91;45.67;101138.59;5034483;28;45412;-71
2023/01/01 05:06:03;;;;;;;;;0.00;0.00;;;;;21.92;45.64;101129.69;5035013;28;45479;-71
2023/01/01 05:08:30;;;;;;;;;1.00;1.00;;;;;21.95;45.61;101134.63;5035008;28;45440;-71
2023/01/01 05:11:04;;;;;;;;;0.00;0.00;;;;;21.95;45.53;101139.94;5034832;28;46219;-71
2023/01/01 05:13:30;;;;;;;;;0.00;0.00;;;;;21.95;45.20;101145.22;5034720;28;45420;-71
2023/01/01 05:15:56;;;;;;;;;0.00;0.00;;;;;21.94;45.18;101153.34;5034352;28;45347;-71
2023/01/01 05:18:21;;;;;;;;;2.00;0.33;;;;;21.94;45.23;101148.03;5034939;28;45481;-71
2023/01/01 05:20:47;;;;;;;;;1.00;1.00;;;;;21.93;45.53;101134.00;5034677;28;45350;-71
2023/01/01 05:23:15;;;;;;;;;1.00;0.00;;;;;21.81;45.25;101138.78;5034853;28;45496;-71
2023/01/01 05:25:40;;;;;;;;;0.33;0.00;;;;;21.92;45.69;101145.56;5034879;28;45307;-71
2023/01/01 05:28:06;;;;;;;;;2.67;0.67;;;;;21.92;45.24;101156.16;5034726;28;45359;-71
2023/01/01 05:30:31;;;;;;;;;1.00;0.00;;;;;21.91;45.17;101151.84;5034372;28;45304;-71
2023/01/01 05:32:56;;;;;;;;;0.00;0.00;;;;;21.90;45.20;101149.38;5034658;28;45347;-71
2023/01/01 05:35:22;;;;;;;;;1.00;1.00;;;;;21.91;45.73;101151.06;5034716;28;45332;-71
2023/01/01 05:37:47;;;;;;;;;1.00;1.00;;;;;21.88;45.57;101146.94;5034723;28;45329;-71
2023/01/01 05:40:12;;;;;;;;;0.33;0.00;;;;;21.81;45.82;101149.38;5033997;28;45376;-71
2023/01/01 05:42:38;;;;;;;;;1.67;0.00;;;;;21.90;45.52;101189.97;5034548;28;45316;-70
2023/01/01 05:45:03;;;;;;;;;0.00;0.00;;;;;21.85;45.30;101189.63;5034289;28;45898;-70
2023/01/01 05:47:29;;;;;;;;;0.33;0.33;;;;;21.88;45.66;101186.66;5034701;28;45357;-71
2023/01/01 05:49:54;;;;;;;;;0.00;0.00;;;;;21.87;45.17;101195.59;5034329;28;45359;-71
2023/01/01 05:52:19;;;;;;;;;1.67;1.00;;;;;21.88;45.50;101199.91;5035923;27;45340;-71
2023/01/01 05:54:45;;;;;;;;;2.00;0.00;;;;;21.85;45.36;101203.69;5049555;28;45310;-71
2023/01/01 05:57:10;;;;;;;;;1.00;0.00;;;;;21.85;45.70;101203.69;5034582;28;45278;-71
2023/01/01 05:59:35;;;;;;;;;1.00;0.00;;;;;21.87;45.61;101208.84;5033817;28;46429;-71
2023/01/01 06:02:01;;;;;;;;;0.00;0.00;;;;;21.87;45.63;101205.31;5034084;28;45352;-71
2023/01/01 06:04:26;;;;;;;;;1.67;1.00;;;;;21.87;45.50;101213.28;5034396;28;45349;-71
2023/01/01 06:06:51;;;;;;;;;0.00;0.00;;;;;21.84;45.63;101217.09;5016501;28;45347;-71
2023/01/01 06:09:16;;;;;;;;;0.00;0.00;;;;;21.82;45.70;101216.44;5034035;28;46396;-71
2023/01/01 06:11:42;;;;;;;;;2.00;0.00;;;;;21.85;45.16;101211.63;5034151;28;46715;-71
2023/01/01 06:14:07;;;;;;;;;0.00;0.00;;;;;21.85;45.63;101218.75;5033896;28;45289;-71
2023/01/01 06:16:33;;;;;;;;;0.33;0.33;;;;;21.77;45.29;101194.94;5034256;28;45275;-71
2023/01/01 06:18:58;;;;;;;;;1.00;1.00;;;;;21.84;45.66;101202.03;5015954;28;45361;-71
2023/01/01 06:21:25;;;;;;;;;0.33;0.33;;;;;21.85;45.23;101211.63;5034043;28;45414;-71
2023/01/01 06:23:51;;;;;;;;;0.00;0.00;;;;;21.85;45.15;101216.09;5034258;28;45460;-71
2023/01/01 06:26:20;;;;;;;;;0.67;0.67;;;;;21.86;44.98;101212.44;5034050;28;45339;-71
2023/01/01 06:28:46;;;;;;;;;1.33;1.33;;;;;21.85;45.58;101213.44;5033460;28;46076;-71
2023/01/01 06:31:14;;;;;;;;;1.67;1.67;;;;;21.85;44.93;101211.63;5033922;28;45534;-71
2023/01/01 06:33:40;;;;;;;;;1.00;0.67;;;;;21.85;45.43;101218.75;5033980;28;45389;-71
2023/01/01 06:36:08;;;;;;;;;0.67;0.00;;;;;21.85;45.11;101226.69;5033929;28;45405;-71
2023/01/01 06:38:36;;;;;;;;;0.33;0.33;;;;;21.71;44.98;101201.72;5033645;28;46260;-71
2023/01/01 06:41:04;;;;;;;;;2.67;1.00;;;;;21.82;45.13;101221.72;5033787;28;45339;-71
2023/01/01 06:43:32;;;;;;;;;0.00;0.00;;;;;21.86;44.93;101236.28;5033584;28;45334;-71
2023/01/01 06:46:23;;;;;;;;;0.00;0.00;;;;;21.87;45.42;101245.06;5033304;28;45443;-71
2023/01/01 06:48:52;;;;;;;;;0.33;0.33;;;;;21.86;45.37;101244.22;5033482;28;45430;-71
2023/01/01 06:51:23;;;;;;;;;1.00;0.00;;;;;21.87;45.41;101255.66;5032263;28;45999;-71
2023/01/01 06:53:49;;;;;;;;;0.67;0.33;;;;;21.78;45.01;101241.63;5047156;28;45408;-71
2023/01/01 06:56:15;;;;;;;;;0.00;0.00;;;;;21.83;45.06;101257.81;5015259;28;45484;-71
2023/01/01 06:58:41;;;;;;;;;0.00;0.00;;;;;21.84;45.00;101262.13;5013172;28;46836;-70
2023/01/01 07:01:11;;;;;;;;;1.00;0.67;;;;;21.84;44.99;101268.25;5013665;27;45420;-70
2023/01/01 07:03:37;;;;;;;;;1.67;0.67;;;;;21.84;44.88;101275.34;5013584;28;45348;-70
2023/01/01 07:06:04;;;;;;;;;0.67;0.67;;;;;21.84;45.35;101273.53;4996038;28;45585;-71
2023/01/01 07:08:29;;;;;;;;;0.00;0.00;;;;;21.85;44.93;101277.03;5013413;27;46471;-71
2023/01/01 07:10:56;;;;;;;;;1.00;1.00;;;;;21.76;45.00;101262.13;5013398;27;45328;-71
2023/01/01 07:13:25;;;;;;;;;0.00;0.00;;;;;21.80;45.00;101282.84;5013134;27;45442;-71
2023/01/01 07:15:51;;;;;;;;;0.00;0.00;;;;;21.82;45.40;101296.72;5013510;27;45292;-71
2023/01/01 07:18:18;;;;;;;;;0.00;0.00;;;;;21.83;45.00;101295.72;5013434;28;46015;-71
2023/01/01 07:20:48;;;;;;;;;1.00;1.00;;;;;21.83;45.42;101294.91;5013485;28;45374;-71
2023/01/01 07:23:13;;;;;;;;;1.33;0.67;;;;;21.82;45.40;101301.19;5013522;27;45326;-71
2023/01/01 07:25:41;;;;;;;;;0.67;0.67;;;;;21.83;45.24;101308.97;4995655;28;45534;-71
2023/01/01 07:28:06;;;;;;;;;0.00;0.00;;;;;21.83;45.46;101313.47;5012968;28;47168;-71
2023/01/01 07:30:31;;;;;;;;;0.33;0.00;;;;;21.82;45.07;101317.91;5013312;27;45312;-71
2023/01/01 07:32:57;;;;;;;;;0.67;0.33;;;;;21.73;44.97;101295.06;5013589;27;45390;-71
2023/01/01 07:35:22;;;;;;;;;0.33;0.00;;;;;21.82;45.44;101314.44;5013555;28;45355;-71
2023/01/01 07:37:48;;;;;;;;;0.00;0.00;;;;;21.76;45.21;101307.16;5013183;27;45472;-71
2023/01/01 07:40:13;;;;;;;;;0.33;0.33;;;;;21.83;45.38;101316.91;5013571;27;45327;-71
2023/01/01 07:42:38;;;;;;;;;0.00;0.00;;;;;21.84;45.43;101315.09;5013202;27;45381;-70
2023/01/01 07:45:04;;;;;;;;;0.33;0.33;;;;;21.77;44.78;101311.47;5013156;27;45281;-70
2023/01/01 07:47:29;;;;;;;;;0.00;0.00;;;;;21.83;45.37;101311.59;5013146;28;45399;-70
2023/01/01 07:49:55;;;;;;;;;0.00;0.00;;;;;21.85;45.44;101314.09;4995313;28;46050;-71
2023/01/01 07:52:20;;;;;;;;;0.00;0.00;;;;;21.78;45.35;101313.13;5016577;28;45266;-70
2023/01/01 07:54:46;;;;;;;;;1.00;1.00;;;;;21.83;45.33;101327.50;5048052;28;45442;-70
2023/01/01 07:57:11;;;;;;;;;1.00;0.67;;;;;21.82;44.99;101319.72;5032377;28;47707;-70
2023/01/01 07:59:37;;;;;;;;;1.00;0.00;;;;;21.83;45.04;101329.34;5031562;28;45614;-70
2023/01/01 08:02:02;;;;;;;;;1.00;1.00;;;;;21.85;45.29;101340.59;5032468;28;45361;-70
2023/01/01 08:04:28;;;;;;;;;0.00;0.00;;;;;21.84;45.35;101339.75;5032719;28;45239;-70
2023/01/01 08:06:53;;;;;;;;;0.00;0.00;;;;;21.83;45.16;101338.09;5032686;28;46760;-71
2023/01/01 08:09:19;;;;;;;;;0.00;0.00;;;;;21.78;45.14;101326.38;5032626;28;45404;-70
2023/01/01 08:11:44;;;;;;;;;0.00;0.00;;;;;21.81;45.08;101333.97;5032306;28;45314;-70
2023/01/01 08:14:12;;;;;;;;;0.00;0.00;;;;;21.84;45.10;101333.63;5032538;28;45448;-70
2023/01/01 08:16:37;;;;;;;;;0.00;0.00;;;;;21.85;44.80;101336.13;5032362;28;46091;-71
2023/01/01 08:19:03;;;;;;;;;1.33;0.00;;;;;21.86;45.23;101344.88;5032298;28;45375;-70
2023/01/01 08:21:29;;;;;;;;;0.00;0.00;;;;;21.87;44.75;101340.41;5032757;28;45413;-70
2023/01/01 08:23:55;;;;;;;;;0.00;0.00;;;;;21.87;44.77;101343.06;5032601;28;45359;-70
2023/01/01 08:26:32;;;;;;;;;0.00;0.00;;;;;21.87;45.17;101346.59;5031933;28;45507;-70
2023/01/01 08:28:58;;;;;;;;;1.00;1.00;;;;;21.87;45.02;101338.63;5032254;28;45364;-70
2023/01/01 08:31:24;;;;;;;;;0.33;0.33;;;;;21.88;44.73;101342.13;5032440;28;45302;-70
2023/01/01 08:33:49;;;;;;;;;0.00;0.00;;;;;21.89;44.79;101341.09;5032180;28;45378;-70
2023/01/01 08:36:15;;;;;;;;;0.67;0.67;;;;;21.88;45.01;101332.34;5032170;28;45480;-70
2023/01/01 08:38:42;;;;;;;;;2.00;1.00;;;;;21.80;44.81;101319.09;5032125;28;45343;-70
2023/01/01 08:41:07;;;;;;;;;1.00;0.00;;;;;21.82;44.90;101327.69;5031765;28;45320;-70
2023/01/01 08:43:33;;;;;;;;;0.00;0.00;;;;;21.87;45.20;101330.69;5032262;28;45377;-70
2023/01/01 08:45:58;;;;;;;;;1.00;1.00;;;;;21.87;44.74;101335.13;5032076;28;45939;-70
2023/01/01 08:48:23;;;;;;;;;1.00;0.00;;;;;21.76;44.74;101315.09;5031988;28;45399;-70
2023/01/01 08:50:59;;;;;;;;;0.00;0.00;;;;;21.88;44.75;101327.06;5031973;28;45426;-70
2023/01/01 08:53:25;;;;;;;;;0.00;0.00;;;;;21.87;45.21;101328.03;5041952;28;45448;-70
2023/01/01 08:55:55;;;;;;;;;0.67;0.67;;;;;21.88;44.65;101320.94;5037847;28;47240;-70
2023/01/01 08:58:21;;;;;;;;;1.00;1.00;;;;;21.88;44.66;101315.63;5031786;28;45338;-70
2023/01/01 09:00:46;;;;;;;;;1.00;1.00;;;;;21.87;45.10;101313.94;5031856;28;45314;-70
2023/01/01 09:03:11;;;;;;;;;0.00;0.00;;;;;21.88;44.71;101310.31;5031750;28;45286;-70
2023/01/01 09:05:36;;;;;;;;;1.00;0.00;;;;;21.87;45.12;101311.28;5031649;28;46025;-70
2023/01/01 09:08:02;;;;;;;;;3.00;0.00;;;;;21.87;45.13;101320.09;5031475;28;45424;-70
2023/01/01 09:10:27;;;;;;;;;3.00;0.00;;;;;21.87;44.64;101324.53;5031763;28;45346;-70
2023/01/01 09:12:52;;;;;;;;;0.00;0.00;;;;;21.86;44.73;101315.75;5031814;28;45432;-70
2023/01/01 09:15:18;;;;;;;;;1.00;0.33;;;;;21.85;45.11;101328.19;5033598;28;46716;-71
2023/01/01 09:17:43;;;;;;;;;0.00;0.00;;;;;21.87;45.07;101337.78;5034764;28;45361;-70
2023/01/01 09:20:09;;;;;;;;;0.00;0.00;;;;;21.87;44.45;101335.13;5035222;28;45260;-70
2023/01/01 09:22:34;;;;;;;;;0.00;0.00;;;;;21.87;44.68;101343.06;5034540;28;45450;-70
2023/01/01 09:24:59;;;;;;;;;1.33;0.00;;;;;21.85;45.12;101346.72;5034606;28;45471;-70
2023/01/01 09:27:25;;;;;;;;;0.33;0.33;;;;;21.87;44.60;101358.97;5034735;28;45420;-70
2023/01/01 09:29:50;;;;;;;;;0.00;0.00;;;;;21.85;44.85;101357.31;5034760;28;45440;-71
2023/01/01 09:32:15;;;;;;;;;0.33;0.00;;;;;21.85;44.87;101352.03;5034992;27;45351;-71
2023/01/01 09:34:41;;;;;;;;;1.00;0.00;;;;;21.85;44.81;101370.56;5034480;28;47124;-70
2023/01/01 09:37:06;;;;;;;;;0.00;0.00;;;;;21.85;45.20;101380.34;5034321;28;45438;-71
2023/01/01 09:39:31;;;;;;;;;0.00;0.00;;;;;21.85;45.22;101380.34;5034790;28;45436;-70
2023/01/01 09:42:15;;;;;;;;;1.67;0.00;;;;;21.87;44.68;101385.44;5034547;28;45626;-70
2023/01/01 09:45:01;;;;;;;;;0.33;0.00;;;;;21.85;44.64;101397.06;5034529;28;46260;-70
2023/01/01 09:47:41;;;;;;;;;0.33;0.00;;;;;21.85;44.60;101391.75;5034448;28;45288;-70
2023/01/01 09:50:20;;;;;;;;;0.00;0.00;;;;;21.85;44.65;101393.56;5034591;28;45306;-70
2023/01/01 09:52:58;;;;;;;;;0.00;0.00;;;;;21.85;44.73;101394.41;5039127;28;45257;-70
2023/01/01 09:55:28;;;;;;;;;0.00;0.00;;;;;21.87;44.53;101388.09;5044089;28;46091;-69
2023/01/01 09:57:55;;;;;;;;;1.00;1.00;;;;;21.87;44.91;101378.38;5034187;28;45328;-70
2023/01/01 10:00:21;;;;;;;;;0.00;0.00;;;;;21.76;44.40;101368.91;5034379;28;45259;-70
2023/01/01 10:03:16;;;;;;;;;0.00;0.00;;;;;21.88;44.82;101395.09;5034290;28;45374;-71
2023/01/01 10:05:47;;;;;;;;;0.00;0.00;;;;;21.87;44.59;101402.22;5029971;28;46215;-70
2023/01/01 10:08:33;;;;;;;;;0.00;0.00;;;;;21.88;45.10;101401.22;5034326;28;45294;-71
2023/01/01 10:11:16;;;;;;;;;2.00;1.00;;;;;21.88;44.49;101403.88;5034145;28;45323;-71
2023/01/01 10:13:44;;;;;;;;;0.00;0.00;;;;;21.88;44.96;101393.28;5034204;28;45476;-70
2023/01/01 10:16:38;;;;;;;;;1.00;1.00;;;;;21.88;44.99;101390.63;5033998;28;47030;-71
2023/01/01 10:19:23;;;;;;;;;0.00;0.00;;;;;21.88;44.58;101387.16;5033948;28;45353;-70
2023/01/01 10:21:51;;;;;;;;;1.00;0.00;;;;;21.88;44.95;101403.03;5033804;28;45504;-70
2023/01/01 10:24:31;;;;;;;;;1.00;1.00;;;;;21.88;44.59;101387.16;5034013;28;45626;-70
2023/01/01 10:26:57;;;;;;;;;0.00;0.00;;;;;21.88;44.88;101406.53;5033683;28;47161;-70
2023/01/01 10:29:48;;;;;;;;;0.00;0.00;;;;;21.88;44.95;101409.19;5033877;28;45415;-71
2023/01/01 10:32:29;;;;;;;;;0.00;0.00;;;;;21.87;44.98;101404.88;5034066;28;45346;-70
2023/01/01 10:34:56;;;;;;;;;0.00;0.00;;;;;21.88;44.73;101405.69;5033523;28;45295;-71
2023/01/01 10:37:22;;;;;;;;;1.00;0.33;;;;;21.87;44.63;101414.59;5033692;28;47039;-70
2023/01/01 10:39:48;;;;;;;;;0.00;0.00;;;;;21.87;44.57;101406.66;5033868;28;45397;-71
2023/01/01 10:42:14;;;;;;;;;0.67;0.00;;;;;21.76;45.15;101383.97;5033984;28;45405;-70
2023/01/01 10:44:41;;;;;;;;;0.00;0.00;;;;;21.77;44.46;101381.16;5033937;28;45821;-70
2023/01/01 10:47:28;;;;;;;;;0.00;0.00;;;;;21.87;45.06;101393.41;5033792;28;45413;-71
2023/01/01 10:49:54;;;;;;;;;1.33;0.00;;;;;21.86;45.00;101389.91;5033250;28;45375;-70
2023/01/01 10:52:25;;;;;;;;;0.00;0.00;;;;;21.87;44.49;101373.06;5035342;28;45307;-71
2023/01/01 10:54:50;;;;;;;;;0.00;0.00;;;;;21.85;44.54;101364.44;5047987;28;45480;-70
2023/01/01 10:57:28;;;;;;;;;0.00;0.00;;;;;21.87;44.60;101351.88;5033533;28;46498;-71
2023/01/01 11:00:07;;;;;;;;;0.00;0.00;;;;;21.87;44.96;101349.22;5033695;28;45725;-70
2023/01/01 11:02:32;;;;;;;;;0.67;0.67;;;;;21.87;45.03;101340.41;5033499;28;45500;-71
2023/01/01 11:05:30;;;;;;;;;1.00;0.00;;;;;21.87;44.96;101329.81;5033160;28;45415;-70
2023/01/01 11:07:56;;;;;;;;;0.00;0.00;;;;;21.82;45.02;101319.72;5074302;28;45598;-70
2023/01/01 11:10:28;;;;;;;;;1.00;1.00;;;;;21.87;44.77;101321.88;5074397;28;45394;-71
2023/01/01 11:12:54;;;;;;;;;0.00;0.00;;;;;21.81;44.63;101313.59;5074660;28;45455;-70
2023/01/01 11:15:46;;;;;;;;;0.00;0.00;;;;;21.86;44.98;101331.63;5074382;28;45501;-71
2023/01/01 11:18:14;;;;;;;;;0.00;0.00;;;;;21.73;44.59;101295.06;5071264;28;46226;-70
2023/01/01 11:20:41;;;;;;;;;0.67;0.67;;;;;21.81;44.82;101305.66;5073563;28;45433;-70
2023/01/01 11:23:37;;;;;;;;;0.00;0.00;;;;;21.83;44.43;101301.00;5074385;28;45424;-70
2023/01/01 11:26:28;;;;;;;;;1.67;1.00;;;;;21.84;45.08;101302.69;5073844;28;45453;-70
2023/01/01 11:29:21;;;;;;;;;3.00;0.00;;;;;21.85;44.60;101304.34;5071120;28;46125;-71
2023/01/01 11:31:47;;;;;;;;;0.00;0.00;;;;;21.74;44.91;101286.13;5074124;28;45363;-70
2023/01/01 11:34:42;;;;;;;;;0.33;0.00;;;;;21.84;45.15;101305.31;5073920;28;45603;-70